createdAt,value
2023-02-24T00:01:24.788Z,96754.16
2023-02-24T00:03:27.387Z,96747.28
2023-02-24T00:05:29.899Z,96753.25
2023-02-24T00:07:32.418Z,96754.06
2023-02-24T00:09:34.972Z,96745.56
2023-02-24T00:11:38.959Z,96749.59
2023-02-24T00:13:46.359Z,96747.03
2023-02-24T00:16:00.766Z,96744.44
2023-02-24T00:18:07.024Z,96740.19
2023-02-24T00:20:12.068Z,96734.06
2023-02-24T00:22:14.623Z,96742.72
2023-02-24T00:24:17.146Z,96738.53
2023-02-24T00:26:19.918Z,96739.41
2023-02-24T00:28:22.451Z,96736.75
2023-02-24T00:30:25.067Z,96733.41
2023-02-24T00:32:27.732Z,96738.31
2023-02-24T00:34:33.843Z,96732.91
2023-02-24T00:36:36.689Z,96738.63
2023-02-24T00:38:40.189Z,96736.44
2023-02-24T00:40:45.244Z,96724.34
2023-02-24T00:42:48.565Z,96730.72
2023-02-24T00:44:54.002Z,96722.34
2023-02-24T00:46:56.556Z,96725.34
2023-02-24T00:48:59.075Z,96717.66
2023-02-24T00:51:03.336Z,96726.38
2023-02-24T00:53:07.501Z,96705.72
2023-02-24T00:55:13.943Z,96714.44
2023-02-24T00:57:18.509Z,96710.94
2023-02-24T00:59:24.101Z,96716.63
2023-02-24T01:01:29.178Z,96714.97
2023-02-24T01:03:32.832Z,96712.28
2023-02-24T01:05:38.746Z,96710.94
2023-02-24T01:07:42.658Z,96704.91
2023-02-24T01:09:45.404Z,96705.91
2023-02-24T01:12:13.040Z,96693.59
2023-02-24T01:14:18.905Z,96702.03
2023-02-24T01:16:21.681Z,96695.41
2023-02-24T01:18:24.238Z,96686.88
2023-02-24T01:20:30.372Z,96691.19
2023-02-24T01:22:34.081Z,96698.97
2023-02-24T01:24:39.858Z,96690.13
2023-02-24T01:26:42.630Z,96688.59
2023-02-24T01:28:48.019Z,96686.78
2023-02-24T01:30:50.836Z,96694.38
2023-02-24T01:32:53.664Z,96683.19
2023-02-24T01:34:56.410Z,96683.31
2023-02-24T01:36:59.118Z,96684.84
2023-02-24T01:39:02.249Z,96684.28
2023-02-24T01:41:08.324Z,96688.72
2023-02-24T01:43:11.808Z,96679.63
2023-02-24T01:45:19.768Z,96677.69
2023-02-24T01:47:22.408Z,96679.63
2023-02-24T01:49:29.668Z,96676.47
2023-02-24T01:51:37.387Z,96674.03
2023-02-24T01:53:40.034Z,96674.59
2023-02-24T01:55:47.024Z,96680.03
2023-02-24T01:57:53.387Z,96683.13
2023-02-24T02:00:01.885Z,96665.13
2023-02-24T02:02:08.612Z,96663.75
2023-02-24T02:04:19.083Z,96663.06
2023-02-24T02:06:21.761Z,96663.88
2023-02-24T02:08:25.206Z,96667.34
2023-02-24T02:10:28.916Z,96677.09
2023-02-24T02:12:36.975Z,96667.72
2023-02-24T02:14:44.056Z,96662.50
2023-02-24T02:17:03.757Z,96661.59
2023-02-24T02:19:45.111Z,96662.41
2023-02-24T02:22:08.645Z,96657.16
2023-02-24T02:24:23.092Z,96664.81
2023-02-24T02:26:57.743Z,96660.34
2023-02-24T02:29:25.471Z,96661.19
2023-02-24T02:31:50.858Z,96657.38
2023-02-24T02:34:08.890Z,96655.75
2023-02-24T02:36:21.884Z,96657.63
2023-02-24T02:38:30.849Z,96661.78
2023-02-24T02:40:40.825Z,96653.22
2023-02-24T02:42:48.257Z,96652.13
2023-02-24T02:44:55.956Z,96652.13
2023-02-24T02:47:04.594Z,96649.38
2023-02-24T02:49:16.884Z,96642.16
2023-02-24T02:51:22.807Z,96641.72
2023-02-24T02:53:32.650Z,96635.75
2023-02-24T02:55:41.718Z,96639.19
2023-02-24T02:57:49.545Z,96637.47
2023-02-24T02:59:57.414Z,96634.78
2023-02-24T03:02:11.475Z,96634.78
2023-02-24T03:04:22.805Z,96625.69
2023-02-24T03:06:29.023Z,96623.41
2023-02-24T03:08:37.147Z,96613.72
2023-02-24T03:10:44.698Z,96621.72
2023-02-24T03:12:51.776Z,96623.53
2023-02-24T03:15:00.013Z,96622.53
2023-02-24T03:17:06.486Z,96623.53
2023-02-24T03:22:40.366Z,96621.72
2023-02-24T03:24:44.518Z,96625.13
2023-02-24T03:26:50.384Z,96610.22
2023-02-24T03:29:00.293Z,96616.25
2023-02-24T03:31:10.927Z,96614.63
2023-02-24T03:33:24.142Z,96609.38
2023-02-24T03:35:29.949Z,96611.97
2023-02-24T03:37:33.974Z,96613.66
2023-02-24T03:39:37.048Z,96601.44
2023-02-24T03:41:47.166Z,96598.84
2023-02-24T03:43:52.225Z,96598.63
2023-02-24T03:45:56.492Z,96597.47
2023-02-24T03:48:03.030Z,96594.88
2023-02-24T03:50:12.633Z,96596.56
2023-02-24T03:52:24.327Z,96599.63
2023-02-24T03:54:49.613Z,96592.69
2023-02-24T03:57:07.188Z,96594.66
2023-02-24T03:59:18.669Z,96592.13
2023-02-24T04:01:30.990Z,96593.06
2023-02-24T04:03:38.849Z,96584.53
2023-02-24T04:05:47.570Z,96586.22
2023-02-24T04:07:58.752Z,96577.66
2023-02-24T04:10:09.804Z,96581.09
2023-02-24T04:12:19.810Z,96581.81
2023-02-24T04:14:29.085Z,96580.06
2023-02-24T04:16:40.065Z,96586.88
2023-02-24T04:18:42.782Z,96582.53
2023-02-24T04:20:49.418Z,96587.00
2023-02-24T04:22:59.535Z,96583.50
2023-02-24T04:25:06.025Z,96581.22
2023-02-24T04:27:12.774Z,96581.50
2023-02-24T04:29:24.565Z,96580.97
2023-02-24T04:31:28.538Z,96575.50
2023-02-24T04:33:31.172Z,96569.22
2023-02-24T04:35:34.165Z,96569.34
2023-02-24T04:37:39.683Z,96564.84
2023-02-24T04:39:42.388Z,96556.59
2023-02-24T04:41:49.292Z,96570.97
2023-02-24T04:43:51.991Z,96565.41
2023-02-24T04:45:55.912Z,96551.84
2023-02-24T04:48:02.099Z,96548.22
2023-02-24T04:50:06.634Z,96557.97
2023-02-24T04:52:10.294Z,96563.81
2023-02-24T04:54:17.332Z,96559.69
2023-02-24T04:56:22.428Z,96559.25
2023-02-24T04:58:27.958Z,96555.66
2023-02-24T05:00:35.679Z,96554.06
2023-02-24T05:02:38.969Z,96557.31
2023-02-24T05:04:41.643Z,96546.56
2023-02-24T05:06:45.122Z,96544.19
2023-02-24T05:08:47.749Z,96542.59
2023-02-24T05:10:52.097Z,96543.66
2023-02-24T05:12:54.861Z,96540.94
2023-02-24T05:15:01.291Z,96536.19
2023-02-24T05:17:03.843Z,96531.19
2023-02-24T05:19:20.617Z,96533.00
2023-02-24T05:21:38.458Z,96531.56
2023-02-24T05:23:44.300Z,96528.16
2023-02-24T05:25:46.950Z,96525.56
2023-02-24T05:27:49.585Z,96523.88
2023-02-24T05:29:54.209Z,96521.41
2023-02-24T05:32:00.417Z,96514.41
2023-02-24T05:34:04.827Z,96516.69
2023-02-24T05:36:12.136Z,96514.50
2023-02-24T05:38:14.714Z,96521.75
2023-02-24T05:40:19.958Z,96516.63
2023-02-24T05:42:22.736Z,96512.47
2023-02-24T05:44:27.413Z,96506.56
2023-02-24T05:46:32.649Z,96505.69
2023-02-24T05:48:36.961Z,96500.47
2023-02-24T05:50:39.765Z,96502.13
2023-02-24T05:52:45.757Z,96506.75
2023-02-24T05:54:49.507Z,96496.28
2023-02-24T05:56:52.113Z,96502.66
2023-02-24T05:59:01.990Z,96498.09
2023-02-24T06:01:16.103Z,96500.91
2023-02-24T06:03:30.830Z,96495.03
2023-02-24T06:05:35.480Z,96487.38
2023-02-24T06:07:38.103Z,96493.75
2023-02-24T06:09:44.981Z,96480.50
2023-02-24T06:11:48.389Z,96485.44
2023-02-24T06:13:51.008Z,96480.63
2023-02-24T06:15:57.235Z,96487.56
2023-02-24T06:18:01.769Z,96489.91
2023-02-24T06:20:13.312Z,96479.75
2023-02-24T06:22:19.673Z,96482.75
2023-02-24T06:24:22.262Z,96487.47
2023-02-24T06:26:29.751Z,96481.63
2023-02-24T06:28:33.488Z,96472.22
2023-02-24T06:30:37.763Z,96479.94
2023-02-24T06:32:41.139Z,96480.06
2023-02-24T06:34:43.794Z,96473.97
2023-02-24T06:36:47.041Z,96469.69
2023-02-24T06:38:52.622Z,96468.66
2023-02-24T06:40:58.280Z,96470.41
2023-02-24T06:43:00.941Z,96467.88
2023-02-24T06:45:04.197Z,96465.91
2023-02-24T06:47:09.132Z,96468.72
2023-02-24T06:49:12.612Z,96463.25
2023-02-24T06:51:16.930Z,96478.06
2023-02-24T06:53:19.507Z,96469.44
2023-02-24T06:55:26.452Z,96477.41
2023-02-24T06:57:32.724Z,96472.28
2023-02-24T06:59:35.298Z,96475.72
2023-02-24T07:01:45.032Z,96470.47
2023-02-24T07:04:03.414Z,96475.53
2023-02-24T07:06:20.451Z,96472.25
2023-02-24T07:08:25.075Z,96473.72
2023-02-24T07:10:29.476Z,96470.41
2023-02-24T07:12:32.005Z,96466.13
2023-02-24T07:14:36.973Z,96461.47
2023-02-24T07:16:41.886Z,96465.81
2023-02-24T07:18:48.270Z,96465.03
2023-02-24T07:20:50.841Z,96471.19
2023-02-24T07:22:53.619Z,96463.75
2023-02-24T07:25:01.494Z,96466.69
2023-02-24T07:27:07.085Z,96467.38
2023-02-24T07:29:11.525Z,96459.50
2023-02-24T07:31:17.281Z,96455.31
2023-02-24T07:33:20.342Z,96457.47
2023-02-24T07:35:23.839Z,96461.50
2023-02-24T07:37:31.437Z,96456.38
2023-02-24T07:39:34.789Z,96458.25
2023-02-24T07:41:37.832Z,96457.41
2023-02-24T07:43:43.992Z,96462.88
2023-02-24T07:45:47.428Z,96450.25
2023-02-24T07:47:50.294Z,96444.13
2023-02-24T07:49:52.865Z,96448.25
2023-02-24T07:51:57.801Z,96448.16
2023-02-24T07:54:02.679Z,96446.56
2023-02-24T07:56:10.721Z,96451.50
2023-02-24T07:58:13.689Z,96450.16
2023-02-24T08:00:18.968Z,96449.75
2023-02-24T08:02:23.774Z,96444.75
2023-02-24T08:04:32.847Z,96444.16
2023-02-24T08:06:38.693Z,96434.81
2023-02-24T08:08:57.939Z,96437.72
2023-02-24T08:11:04.079Z,96441.03
2023-02-24T08:13:06.756Z,96435.13
2023-02-24T08:15:17.274Z,96435.81
2023-02-24T08:17:23.884Z,96433.22
2023-02-24T08:19:32.805Z,96432.22
2023-02-24T08:21:38.230Z,96427.97
2023-02-24T08:23:44.578Z,96430.69
2023-02-24T08:25:47.133Z,96424.38
2023-02-24T08:28:12.249Z,96426.00
2023-02-24T08:30:23.385Z,96418.78
2023-02-24T08:32:33.815Z,96422.69
2023-02-24T08:34:36.666Z,96417.16
2023-02-24T08:36:39.244Z,96421.28
2023-02-24T08:38:42.084Z,96417.31
2023-02-24T08:40:54.509Z,96408.97
2023-02-24T08:42:58.627Z,96411.41
2023-02-24T08:45:01.844Z,96404.63
2023-02-24T08:47:07.466Z,96405.84
2023-02-24T08:49:12.247Z,96404.41
2023-02-24T08:51:18.071Z,96405.84
2023-02-24T08:53:20.809Z,96395.84
2023-02-24T08:55:30.155Z,96399.16
2023-02-24T08:57:35.946Z,96399.34
2023-02-24T08:59:38.925Z,96397.41
2023-02-24T09:02:04.153Z,96401.91
2023-02-24T09:04:09.793Z,96389.84
2023-02-24T09:06:16.823Z,96393.22
2023-02-24T09:08:24.110Z,96382.56
2023-02-24T09:10:28.569Z,96386.81
2023-02-24T09:12:32.174Z,96392.13
2023-02-24T09:14:37.561Z,96388.03
2023-02-24T09:16:52.419Z,96385.22
2023-02-24T09:19:08.894Z,96394.53
2023-02-24T09:21:37.612Z,96380.47
2023-02-24T09:23:46.020Z,96379.19
2023-02-24T09:25:50.434Z,96374.97
2023-02-24T09:27:55.864Z,96380.66
2023-02-24T09:30:08.098Z,96381.09
2023-02-24T09:32:14.745Z,96370.06
2023-02-24T09:34:18.545Z,96378.59
2023-02-24T09:36:27.966Z,96373.06
2023-02-24T09:38:49.355Z,96371.28
2023-02-24T09:40:52.177Z,96372.81
2023-02-24T09:42:58.371Z,96376.16
2023-02-24T09:45:11.386Z,96367.66
2023-02-24T09:47:20.209Z,96375.88
2023-02-24T09:49:28.364Z,96372.66
2023-02-24T09:51:42.228Z,96372.13
2023-02-24T09:53:52.538Z,96371.28
2023-02-24T09:56:04.840Z,96360.44
2023-02-24T09:58:31.903Z,96371.50
2023-02-24T10:00:44.271Z,96368.88
2023-02-24T10:03:00.185Z,96368.50
2023-02-24T10:05:14.837Z,96366.50
2023-02-24T10:07:28.441Z,96365.59
2023-02-24T10:09:35.411Z,96374.59
2023-02-24T10:11:40.738Z,96371.59
2023-02-24T10:13:49.128Z,96367.47
2023-02-24T10:15:59.865Z,96360.56
2023-02-24T10:18:27.199Z,96353.91
2023-02-24T10:20:40.392Z,96362.31
2023-02-24T10:22:53.261Z,96351.50
2023-02-24T10:25:10.912Z,96352.59
2023-02-24T10:27:23.752Z,96348.00
2023-02-24T10:29:39.057Z,96341.09
2023-02-24T10:31:48.036Z,96336.59
2023-02-24T10:33:53.768Z,96340.56
2023-02-24T10:36:11.510Z,96335.78
2023-02-24T10:38:15.902Z,96338.22
2023-02-24T10:40:26.602Z,96336.81
2023-02-24T10:42:32.527Z,96334.38
2023-02-24T10:44:38.912Z,96338.91
2023-02-24T10:46:43.089Z,96333.53
2023-02-24T10:48:52.799Z,96324.72
2023-02-24T10:51:08.385Z,96320.75
2023-02-24T10:53:34.453Z,96323.03
2023-02-24T10:56:02.066Z,96320.59
2023-02-24T10:58:07.205Z,96314.22
2023-02-24T11:00:32.538Z,96317.06
2023-02-24T11:02:56.482Z,96303.28
2023-02-24T11:05:27.288Z,96303.75
2023-02-24T11:07:44.155Z,96294.56
2023-02-24T11:09:52.475Z,96297.47
2023-02-24T11:12:15.138Z,96290.44
2023-02-24T11:14:35.879Z,96292.50
2023-02-24T11:17:05.695Z,96289.91
2023-02-24T11:19:08.888Z,96278.78
2023-02-24T11:21:14.411Z,96277.03
2023-02-24T11:23:20.006Z,96271.00
2023-02-24T11:25:26.101Z,96276.56
2023-02-24T11:27:30.116Z,96269.94
2023-02-24T11:29:49.118Z,96266.72
2023-02-24T11:32:09.056Z,96263.88
2023-02-24T11:34:20.081Z,96256.22
2023-02-24T11:36:30.642Z,96246.50
2023-02-24T11:38:41.203Z,96246.31
2023-02-24T11:40:48.274Z,96236.44
2023-02-24T11:42:57.042Z,96243.28
2023-02-24T11:45:06.350Z,96228.53
2023-02-24T11:47:16.117Z,96225.13
2023-02-24T11:49:27.883Z,96216.38
2023-02-24T11:51:33.522Z,96210.31
2023-02-24T11:53:37.947Z,96208.41
2023-02-24T11:55:46.335Z,96204.81
2023-02-24T11:57:55.370Z,96199.78
2023-02-24T12:00:15.604Z,96194.44
2023-02-24T12:02:28.428Z,96190.81
2023-02-24T12:04:35.881Z,96184.19
2023-02-24T12:06:45.302Z,96170.00
2023-02-24T12:08:53.630Z,96162.19
2023-02-24T12:11:02.927Z,96159.16
2023-02-24T12:13:17.194Z,96153.97
2023-02-24T12:15:25.593Z,96152.63
2023-02-24T12:17:35.996Z,96143.34
2023-02-24T12:19:51.657Z,96137.88
2023-02-24T12:21:59.528Z,96137.03
2023-02-24T12:24:08.485Z,96126.16
2023-02-24T12:26:19.899Z,96126.84
2023-02-24T12:28:39.221Z,96129.19
2023-02-24T12:31:08.900Z,96122.59
2023-02-24T12:33:27.916Z,96120.69
2023-02-24T12:35:39.521Z,96116.66
2023-02-24T12:37:59.691Z,96119.03
2023-02-24T12:40:16.819Z,96111.91
2023-02-24T12:42:27.296Z,96107.50
2023-02-24T12:44:42.648Z,96109.59
2023-02-24T12:46:48.956Z,96103.38
2023-02-24T12:49:09.323Z,96100.28
2023-02-24T12:51:22.902Z,96101.47
2023-02-24T12:53:36.678Z,96103.28
2023-02-24T12:55:50.095Z,96101.81
2023-02-24T12:58:01.336Z,96101.44
2023-02-24T13:00:12.558Z,96097.03
2023-02-24T13:02:23.863Z,96088.69
2023-02-24T13:04:35.048Z,96080.09
2023-02-24T13:06:49.635Z,96079.53
2023-02-24T13:08:59.467Z,96076.34
2023-02-24T13:11:09.947Z,96069.41
2023-02-24T13:13:20.704Z,96071.63
2023-02-24T13:15:26.259Z,96057.06
2023-02-24T13:17:29.624Z,96054.47
2023-02-24T13:19:32.383Z,96052.69
2023-02-24T13:21:35.369Z,96056.50
2023-02-24T13:23:41.879Z,96050.78
2023-02-24T13:25:52.110Z,96059.28
2023-02-24T13:28:01.066Z,96046.44
2023-02-24T13:30:08.531Z,96054.75
2023-02-24T13:32:26.428Z,96049.03
2023-02-24T13:34:33.132Z,96037.16
2023-02-24T13:36:47.302Z,96029.03
2023-02-24T13:38:52.262Z,96032.09
2023-02-24T13:40:55.262Z,96024.09
2023-02-24T13:43:00.583Z,96021.31
2023-02-24T13:45:07.699Z,96019.81
2023-02-24T13:47:45.811Z,96012.53
2023-02-24T13:50:01.228Z,96016.09
2023-02-24T13:52:12.749Z,96014.78
2023-02-24T13:54:32.412Z,96008.81
2023-02-24T13:56:42.915Z,96007.69
2023-02-24T13:59:00.511Z,96010.31
2023-02-24T14:01:11.771Z,95991.22
2023-02-24T14:03:21.410Z,95996.97
2023-02-24T14:05:28.937Z,95990.91
2023-02-24T14:07:36.886Z,95993.81
2023-02-24T14:09:44.280Z,95996.06
2023-02-24T14:11:46.913Z,95988.03
2023-02-24T14:13:53.316Z,95991.84
2023-02-24T14:15:56.936Z,95984.56
2023-02-24T14:18:01.237Z,95983.25
2023-02-24T14:20:18.930Z,95987.06
2023-02-24T14:22:23.352Z,95970.06
2023-02-24T14:24:28.071Z,95972.56
2023-02-24T14:26:47.022Z,95979.63
2023-02-24T14:28:55.992Z,95973.94
2023-02-24T14:31:01.196Z,95963.16
2023-02-24T14:33:05.899Z,95958.78
2023-02-24T14:35:20.393Z,95950.31
2023-02-24T14:37:27.097Z,95951.69
2023-02-24T14:39:32.090Z,95955.22
2023-02-24T14:41:35.357Z,95956.72
2023-02-24T14:43:42.821Z,95950.31
2023-02-24T14:45:50.178Z,95952.13
2023-02-24T14:47:53.671Z,95955.31
2023-02-24T14:49:59.725Z,95954.00
2023-02-24T14:52:10.485Z,95946.41
2023-02-24T14:54:24.154Z,95947.41
2023-02-24T14:56:31.528Z,95947.50
2023-02-24T14:58:39.510Z,95945.19
2023-02-24T15:00:48.092Z,95946.47
2023-02-24T15:02:58.792Z,95954.31
2023-02-24T15:05:01.683Z,95947.69
2023-02-24T15:07:06.765Z,95945.00
2023-02-24T15:09:17.011Z,95949.38
2023-02-24T15:11:23.005Z,95944.44
2023-02-24T15:13:35.122Z,95938.19
2023-02-24T15:15:39.422Z,95935.22
2023-02-24T15:17:42.400Z,95927.03
2023-02-24T15:19:47.154Z,95925.53
2023-02-24T15:21:49.773Z,95921.13
2023-02-24T15:24:00.410Z,95923.09
2023-02-24T15:26:09.515Z,95916.75
2023-02-24T15:28:25.726Z,95916.41
2023-02-24T15:30:32.484Z,95920.88
2023-02-24T15:32:37.905Z,95905.97
2023-02-24T15:34:41.330Z,95904.66
2023-02-24T15:36:43.995Z,95900.66
2023-02-24T15:38:47.548Z,95893.47
2023-02-24T15:40:53.505Z,95896.16
2023-02-24T15:42:59.778Z,95894.59
2023-02-24T15:45:03.636Z,95891.16
2023-02-24T15:47:22.732Z,95883.91
2023-02-24T15:49:25.702Z,95888.25
2023-02-24T15:51:35.078Z,95888.81
2023-02-24T15:53:37.632Z,95882.94
2023-02-24T15:55:42.481Z,95873.34
2023-02-24T15:57:45.679Z,95881.72
2023-02-24T15:59:49.565Z,95872.91
2023-02-24T16:01:52.449Z,95876.00
2023-02-24T16:03:55.113Z,95867.09
2023-02-24T16:05:57.698Z,95866.66
2023-02-24T16:08:00.348Z,95870.31
2023-02-24T16:10:03.982Z,95866.50
2023-02-24T16:12:11.336Z,95864.59
2023-02-24T16:14:19.016Z,95869.16
2023-02-24T16:16:23.978Z,95875.22
2023-02-24T16:18:27.081Z,95869.25
2023-02-24T16:20:32.449Z,95872.81
2023-02-24T16:22:35.040Z,95874.31
2023-02-24T16:24:38.136Z,95874.47
2023-02-24T16:26:41.651Z,95879.44
2023-02-24T16:28:45.142Z,95877.19
2023-02-24T16:30:49.599Z,95876.16
2023-02-24T16:32:53.740Z,95876.44
2023-02-24T16:34:57.117Z,95878.03
2023-02-24T16:36:59.706Z,95879.34
2023-02-24T16:39:04.835Z,95880.28
2023-02-24T16:41:07.652Z,95879.34
2023-02-24T16:43:10.803Z,95870.41
2023-02-24T16:45:13.398Z,95876.34
2023-02-24T16:47:20.143Z,95881.56
2023-02-24T16:49:24.278Z,95876.91
2023-02-24T16:51:28.984Z,95874.84
2023-02-24T16:53:32.025Z,95881.91
2023-02-24T16:55:34.877Z,95877.91
2023-02-24T16:57:37.551Z,95872.75
2023-02-24T16:59:40.216Z,95870.16
2023-02-24T17:01:43.467Z,95874.88
2023-02-24T17:03:48.492Z,95877.66
2023-02-24T17:05:52.806Z,95875.03
2023-02-24T17:07:57.183Z,95881.09
2023-02-24T17:09:59.830Z,95879.22
2023-02-24T17:12:02.436Z,95894.84
2023-02-24T17:14:05.044Z,95896.16
2023-02-24T17:16:07.889Z,95896.22
2023-02-24T17:18:10.656Z,95888.31
2023-02-24T17:20:15.791Z,95895.50
2023-02-24T17:22:20.318Z,95901.81
2023-02-24T17:24:22.904Z,95906.53
2023-02-24T17:26:25.643Z,95896.28
2023-02-24T17:28:29.009Z,95909.97
2023-02-24T17:30:33.989Z,95900.66
2023-02-24T17:32:36.625Z,95888.66
2023-02-24T17:34:39.250Z,95891.44
2023-02-24T17:36:41.818Z,95899.56
2023-02-24T17:38:45.852Z,95890.34
2023-02-24T17:40:48.951Z,95884.94
2023-02-24T17:42:51.720Z,95880.81
2023-02-24T17:44:54.420Z,95884.19
2023-02-24T17:46:56.991Z,95890.13
2023-02-24T17:49:00.224Z,95890.97
2023-02-24T17:51:02.875Z,95894.59
2023-02-24T17:53:05.503Z,95894.31
2023-02-24T17:55:12.625Z,95889.44
2023-02-24T17:57:15.221Z,95901.16
2023-02-24T17:59:17.890Z,95896.03
2023-02-24T18:01:20.483Z,95898.91
2023-02-24T18:03:23.206Z,95902.19
2023-02-24T18:05:26.122Z,95905.13
2023-02-24T18:07:29.058Z,95908.66
2023-02-24T18:09:31.645Z,95899.16
2023-02-24T18:11:35.953Z,95900.09
2023-02-24T18:13:38.552Z,95895.56
2023-02-24T18:15:41.159Z,95903.00
2023-02-24T18:17:43.750Z,95903.00
2023-02-24T18:19:46.408Z,95893.72
2023-02-24T18:21:49.120Z,95902.59
2023-02-24T18:23:51.684Z,95901.09
2023-02-24T18:25:54.301Z,95896.78
2023-02-24T18:27:58.187Z,95890.44
2023-02-24T18:30:00.747Z,95888.66
2023-02-24T18:32:04.250Z,95878.69
2023-02-24T18:34:06.908Z,95873.88
2023-02-24T18:36:11.331Z,95866.16
2023-02-24T18:38:13.959Z,95866.59
2023-02-24T18:40:16.684Z,95866.34
2023-02-24T18:42:19.250Z,95868.47
2023-02-24T18:44:26.170Z,95872.38
2023-02-24T18:46:28.773Z,95878.22
2023-02-24T18:48:32.593Z,95876.38
2023-02-24T18:50:35.179Z,95871.03
2023-02-24T18:52:37.733Z,95871.31
2023-02-24T18:54:40.328Z,95891.03
2023-02-24T18:56:42.967Z,95886.16
2023-02-24T18:58:46.873Z,95876.97
2023-02-24T19:00:51.562Z,95878.66
2023-02-24T19:02:54.144Z,95882.22
2023-02-24T19:04:57.083Z,95881.50
2023-02-24T19:06:59.664Z,95883.09
2023-02-24T19:09:06.055Z,95880.94
2023-02-24T19:11:10.447Z,95885.03
2023-02-24T19:13:13.562Z,95885.38
2023-02-24T19:15:17.685Z,95886.66
2023-02-24T19:17:21.674Z,95890.59
2023-02-24T19:19:24.466Z,95880.94
2023-02-24T19:21:29.419Z,95887.91
2023-02-24T19:23:32.108Z,95897.63
2023-02-24T19:25:35.039Z,95900.63
2023-02-24T19:27:37.632Z,95908.88
2023-02-24T19:29:40.443Z,95911.47
2023-02-24T19:31:43.123Z,95915.91
2023-02-24T19:33:47.380Z,95921.88
2023-02-24T19:35:53.164Z,95923.13
2023-02-24T19:37:55.809Z,95926.63
2023-02-24T19:39:58.363Z,95922.28
2023-02-24T19:42:00.926Z,95913.97
2023-02-24T19:44:03.541Z,95909.75
2023-02-24T19:46:07.204Z,95915.19
2023-02-24T19:48:10.798Z,95921.59
2023-02-24T19:50:16.574Z,95931.34
2023-02-24T19:52:19.279Z,95926.81
2023-02-24T19:54:22.443Z,95926.06
2023-02-24T19:56:25.877Z,95926.28
2023-02-24T19:58:28.435Z,95924.13
2023-02-24T20:00:31.073Z,95930.00
2023-02-24T20:02:33.723Z,95935.94
2023-02-24T20:04:36.300Z,95929.50
2023-02-24T20:06:42.995Z,95928.53
2023-02-24T20:08:45.637Z,95922.38
2023-02-24T20:10:48.205Z,95924.84
2023-02-24T20:12:50.801Z,95925.84
2023-02-24T20:14:53.555Z,95925.31
2023-02-24T20:16:56.505Z,95917.59
2023-02-24T20:19:00.006Z,95928.00
2023-02-24T20:21:02.854Z,95929.81
2023-02-24T20:23:06.821Z,95936.22
2023-02-24T20:25:10.307Z,95916.84
2023-02-24T20:27:12.893Z,95916.00
2023-02-24T20:29:16.508Z,95928.03
2023-02-24T20:31:20.243Z,95933.59
2023-02-24T20:33:23.402Z,95932.47
2023-02-24T20:35:26.430Z,95932.28
2023-02-24T20:37:29.015Z,95934.25
2023-02-24T20:39:33.517Z,95936.59
2023-02-24T20:41:36.220Z,95922.50
2023-02-24T20:43:39.030Z,95929.72
2023-02-24T20:45:41.683Z,95938.16
2023-02-24T20:47:44.315Z,95938.16
2023-02-24T20:49:46.909Z,95943.91
2023-02-24T20:51:49.532Z,95946.59
2023-02-24T20:53:57.762Z,95946.00
2023-02-24T20:56:03.590Z,95943.44
2023-02-24T20:58:06.501Z,95949.41
2023-02-24T21:00:10.518Z,95954.75
2023-02-24T21:02:13.285Z,95955.06
2023-02-24T21:04:18.149Z,95954.75
2023-02-24T21:06:20.760Z,95940.03
2023-02-24T21:08:23.371Z,95936.50
2023-02-24T21:10:26.111Z,95931.31
2023-02-24T21:12:30.202Z,95933.28
2023-02-24T21:14:32.783Z,95937.88
2023-02-24T21:16:36.244Z,95944.28
2023-02-24T21:18:39.902Z,95943.91
2023-02-24T21:20:42.451Z,95939.84
2023-02-24T21:22:45.086Z,95939.69
2023-02-24T21:24:47.833Z,95939.41
2023-02-24T21:26:50.474Z,95946.34
2023-02-24T21:28:57.882Z,95947.66
2023-02-24T21:31:00.956Z,95939.47
2023-02-24T21:33:04.232Z,95933.50
2023-02-24T21:35:07.030Z,95937.63
2023-02-24T21:37:09.648Z,95932.16
2023-02-24T21:39:14.431Z,95931.47
2023-02-24T21:41:19.265Z,95936.81
2023-02-24T21:43:22.656Z,95938.03
2023-02-24T21:45:27.599Z,95949.31
2023-02-24T21:47:31.683Z,95957.88
2023-02-24T21:49:34.401Z,95947.13
2023-02-24T21:51:36.992Z,95949.41
2023-02-24T21:53:41.825Z,95956.81
2023-02-24T21:55:44.566Z,95957.19
2023-02-24T21:57:47.942Z,95966.63
2023-02-24T21:59:50.727Z,95966.03
2023-02-24T22:01:55.164Z,95970.69
2023-02-24T22:03:59.007Z,95970.13
2023-02-24T22:06:01.566Z,95971.88
2023-02-24T22:08:04.212Z,95971.97
2023-02-24T22:10:07.672Z,95960.59
2023-02-24T22:12:10.264Z,95959.69
2023-02-24T22:14:15.048Z,95952.50
2023-02-24T22:16:19.910Z,95962.88
2023-02-24T22:18:23.925Z,95970.06
2023-02-24T22:20:26.531Z,95970.25
2023-02-24T22:22:29.096Z,95970.88
2023-02-24T22:24:31.762Z,95960.56
2023-02-24T22:26:34.750Z,95973.75
2023-02-24T22:28:39.769Z,95970.41
2023-02-24T22:30:42.438Z,95970.63
2023-02-24T22:32:45.060Z,95966.63
2023-02-24T22:34:49.245Z,95978.53
2023-02-24T22:36:51.855Z,95993.00
2023-02-24T22:38:56.156Z,95997.13
2023-02-24T22:40:59.851Z,95996.75
2023-02-24T22:43:02.583Z,95997.47
2023-02-24T22:45:06.325Z,96009.75
2023-02-24T22:47:09.009Z,96011.56
2023-02-24T22:49:12.224Z,96022.28
2023-02-24T22:51:16.333Z,96016.84
2023-02-24T22:53:18.909Z,96015.97
2023-02-24T22:55:21.498Z,96019.59
2023-02-24T22:57:24.105Z,96026.47
2023-02-24T22:59:26.650Z,96020.69
2023-02-24T23:01:31.996Z,96024.91
2023-02-24T23:03:34.649Z,96022.25
2023-02-24T23:05:37.211Z,96018.75
2023-02-24T23:07:41.139Z,96017.91
2023-02-24T23:09:52.714Z,96025.63
2023-02-24T23:11:55.302Z,96029.06
2023-02-24T23:13:59.516Z,96029.25
2023-02-24T23:16:03.499Z,96030.09
2023-02-24T23:18:06.529Z,96026.59
2023-02-24T23:20:12.786Z,96023.88
2023-02-24T23:22:15.417Z,96023.03
2023-02-24T23:24:20.745Z,96019.75
2023-02-24T23:26:23.969Z,96025.78
2023-02-24T23:28:27.721Z,96026.66
2023-02-24T23:30:33.135Z,96027.84
2023-02-24T23:32:36.256Z,96031.28
2023-02-24T23:34:41.941Z,96027.84
2023-02-24T23:36:47.398Z,96021.88
2023-02-24T23:38:50.460Z,96020.28
2023-02-24T23:40:54.339Z,96024.47
2023-02-24T23:42:56.881Z,96027.19
2023-02-24T23:44:59.448Z,96027.13
2023-02-24T23:47:02.032Z,96031.44
2023-02-24T23:49:05.717Z,96034.09
2023-02-24T23:51:13.339Z,96042.69
2023-02-24T23:53:15.919Z,96036.75
2023-02-24T23:55:18.654Z,96032.38
2023-02-24T23:57:23.141Z,96034.91
2023-02-24T23:59:25.793Z,96035.06
